createdAt,value
2019-03-01T00:01:04.830Z,4.47
2019-03-01T00:03:33.886Z,6.20
2019-03-01T00:06:23.566Z,4.97
2019-03-01T00:09:01.219Z,5.83
2019-03-01T00:11:52.318Z,6.37
2019-03-01T00:14:55.678Z,5.23
2019-03-01T00:17:48.750Z,9.57
2019-03-01T00:20:23.137Z,6.37
2019-03-01T00:23:03.908Z,6.57
2019-03-01T00:25:44.337Z,4.63
2019-03-01T00:28:21.970Z,9.80
2019-03-01T00:30:53.653Z,8.37
2019-03-01T00:33:58.903Z,4.60
2019-03-01T00:36:50.061Z,5.93
2019-03-01T00:39:39.959Z,4.47
2019-03-01T00:42:17.332Z,5.47
2019-03-01T00:44:48.345Z,5.00
2019-03-01T00:47:17.200Z,5.83
2019-03-01T00:49:45.585Z,8.07
2019-03-01T00:52:14.072Z,4.90
2019-03-01T00:54:42.465Z,6.87
2019-03-01T00:57:10.895Z,5.60
2019-03-01T00:59:39.284Z,6.60
2019-03-01T01:02:07.704Z,6.17
2019-03-01T01:04:36.088Z,8.10
2019-03-01T01:07:04.524Z,5.33
2019-03-01T01:09:32.919Z,4.97
2019-03-01T01:12:01.337Z,5.30
2019-03-01T01:14:29.719Z,6.63
2019-03-01T01:16:58.148Z,6.07
2019-03-01T01:19:26.534Z,6.40
2019-03-01T01:21:55.035Z,6.03
2019-03-01T01:24:23.420Z,4.47
2019-03-01T01:26:51.831Z,5.87
2019-03-01T01:29:20.213Z,5.67
2019-03-01T01:31:48.632Z,7.57
2019-03-01T01:34:17.036Z,7.40
2019-03-01T01:36:45.457Z,6.10
2019-03-01T01:39:13.845Z,4.63
2019-03-01T01:41:42.346Z,6.33
2019-03-01T01:44:10.739Z,5.77
2019-03-01T01:46:39.125Z,5.73
2019-03-01T01:49:07.512Z,5.90
2019-03-01T01:51:35.951Z,4.47
2019-03-01T01:54:04.513Z,6.43
2019-03-01T01:56:32.993Z,6.10
2019-03-01T01:59:01.414Z,6.73
2019-03-01T02:01:29.803Z,5.87
2019-03-01T02:03:58.184Z,6.00
2019-03-01T02:06:26.741Z,6.23
2019-03-01T02:08:55.134Z,5.70
2019-03-01T02:11:23.596Z,6.37
2019-03-01T02:13:51.984Z,8.83
2019-03-01T02:16:20.374Z,6.70
2019-03-01T02:18:57.256Z,5.57
2019-03-01T02:21:18.982Z,6.87
2019-03-01T02:23:47.378Z,5.07
2019-03-01T02:26:15.772Z,6.20
2019-03-01T02:28:44.161Z,6.57
2019-03-01T02:31:12.884Z,4.50
2019-03-01T02:33:41.280Z,5.37
2019-03-01T02:36:09.667Z,5.67
2019-03-01T02:38:38.073Z,5.03
2019-03-01T02:41:06.465Z,6.37
2019-03-01T02:43:34.855Z,6.10
2019-03-01T02:46:03.244Z,6.47
2019-03-01T02:48:31.718Z,6.20
2019-03-01T02:51:00.210Z,5.60
2019-03-01T02:53:28.607Z,7.37
2019-03-01T02:55:56.999Z,8.70
2019-03-01T02:58:25.393Z,7.33
2019-03-01T03:00:53.784Z,6.83
2019-03-01T03:03:22.173Z,7.13
2019-03-01T03:05:55.195Z,6.67
2019-03-01T03:08:23.614Z,6.37
2019-03-01T03:10:52.026Z,6.03
2019-03-01T03:13:20.415Z,6.83
2019-03-01T03:15:50.687Z,8.40
2019-03-01T03:18:19.110Z,6.40
2019-03-01T03:20:47.613Z,5.53
2019-03-01T03:23:16.026Z,7.43
2019-03-01T03:25:44.415Z,5.53
2019-03-01T03:28:12.854Z,7.30
2019-03-01T03:30:41.242Z,10.03
2019-03-01T03:33:09.696Z,8.73
2019-03-01T03:35:38.087Z,8.07
2019-03-01T03:38:06.513Z,8.80
2019-03-01T03:40:34.900Z,5.30
2019-03-01T03:43:03.333Z,6.87
2019-03-01T03:45:31.720Z,8.60
2019-03-01T03:48:00.223Z,8.27
2019-03-01T03:50:28.607Z,8.13
2019-03-01T03:52:57.046Z,7.17
2019-03-01T03:55:25.467Z,7.33
2019-03-01T03:57:53.854Z,9.00
2019-03-01T04:00:25.691Z,8.93
2019-03-01T04:02:54.279Z,10.03
2019-03-01T04:05:22.636Z,9.97
2019-03-01T04:07:51.023Z,9.90
2019-03-01T04:10:19.414Z,10.07
2019-03-01T04:12:47.813Z,9.40
2019-03-01T04:15:18.885Z,7.77
2019-03-01T04:17:47.269Z,8.27
2019-03-01T04:20:19.035Z,11.00
2019-03-01T04:22:47.421Z,8.30
2019-03-01T04:25:15.814Z,9.10
2019-03-01T04:27:44.214Z,10.37
2019-03-01T04:30:14.731Z,10.03
2019-03-01T04:32:43.152Z,9.57
2019-03-01T04:35:11.670Z,8.67
2019-03-01T04:37:40.149Z,8.33
2019-03-01T04:40:13.699Z,8.30
2019-03-01T04:42:42.132Z,7.87
2019-03-01T04:45:15.593Z,9.40
2019-03-01T04:47:44.147Z,9.23
2019-03-01T04:50:12.805Z,9.37
2019-03-01T04:52:41.739Z,8.97
2019-03-01T04:55:18.525Z,7.57
2019-03-01T04:57:46.917Z,8.37
2019-03-01T05:00:17.251Z,7.43
2019-03-01T05:02:45.637Z,8.60
2019-03-01T05:05:14.373Z,8.30
2019-03-01T05:07:42.757Z,8.17
2019-03-01T05:10:13.084Z,8.43
2019-03-01T05:12:41.485Z,8.83
2019-03-01T05:15:18.451Z,9.13
2019-03-01T05:17:46.845Z,7.43
2019-03-01T05:20:15.240Z,10.77
2019-03-01T05:22:43.630Z,9.43
2019-03-01T05:25:12.189Z,8.53
2019-03-01T05:27:40.564Z,9.93
2019-03-01T05:30:11.596Z,7.57
2019-03-01T05:32:40.011Z,9.00
2019-03-01T05:35:08.663Z,8.27
2019-03-01T05:37:37.093Z,8.80
2019-03-01T05:40:08.662Z,10.63
2019-03-01T05:42:37.058Z,9.53
2019-03-01T05:45:08.844Z,10.87
2019-03-01T05:47:37.233Z,8.53
2019-03-01T05:50:08.890Z,9.67
2019-03-01T05:52:37.287Z,10.27
2019-03-01T05:55:08.153Z,8.97
2019-03-01T05:57:36.544Z,9.17
2019-03-01T06:00:09.929Z,9.83
2019-03-01T06:02:47.115Z,11.93
2019-03-01T06:05:15.705Z,8.30
2019-03-01T06:07:59.271Z,6.13
2019-03-01T06:10:28.441Z,6.60
2019-03-01T06:13:22.817Z,8.17
2019-03-01T06:16:00.470Z,6.63
2019-03-01T06:18:48.555Z,12.73
2019-03-01T06:21:55.260Z,9.60
2019-03-01T06:24:51.245Z,10.63
2019-03-01T06:27:39.158Z,9.00
2019-03-01T06:30:25.815Z,8.63
2019-03-01T06:33:12.496Z,7.33
2019-03-01T06:36:02.231Z,9.30
2019-03-01T06:38:53.132Z,10.60
2019-03-01T06:41:35.119Z,9.67
2019-03-01T06:44:06.854Z,10.73
2019-03-01T06:46:55.328Z,9.93
2019-03-01T06:49:25.356Z,7.90
2019-03-01T06:51:53.749Z,14.17
2019-03-01T06:54:22.149Z,12.43
2019-03-01T06:56:50.553Z,11.03
2019-03-01T06:59:18.979Z,13.47
2019-03-01T07:01:48.126Z,14.47
2019-03-01T07:04:17.097Z,12.60
2019-03-01T07:06:45.491Z,10.60
2019-03-01T07:09:13.929Z,11.00
2019-03-01T07:11:42.322Z,10.80
2019-03-01T07:14:10.756Z,17.27
2019-03-01T07:16:39.146Z,10.93
2019-03-01T07:19:07.594Z,12.80
2019-03-01T07:21:36.039Z,12.70
2019-03-01T07:24:04.574Z,10.97
2019-03-01T07:26:33.021Z,11.07
2019-03-01T07:29:01.423Z,11.63
2019-03-01T07:31:29.806Z,15.90
2019-03-01T07:33:58.198Z,10.83
2019-03-01T07:36:26.579Z,11.20
2019-03-01T07:38:54.974Z,10.17
2019-03-01T07:41:23.604Z,11.40
2019-03-01T07:43:51.995Z,12.27
2019-03-01T07:46:20.447Z,11.27
2019-03-01T07:48:48.901Z,9.87
2019-03-01T07:51:17.300Z,10.30
2019-03-01T07:53:45.680Z,8.97
2019-03-01T07:56:14.157Z,9.17
2019-03-01T07:58:42.550Z,8.00
2019-03-01T08:01:10.935Z,8.03
2019-03-01T08:03:39.334Z,7.23
2019-03-01T08:06:13.098Z,10.73
2019-03-01T08:08:38.787Z,9.80
2019-03-01T08:11:08.039Z,7.73
2019-03-01T08:13:36.423Z,10.27
2019-03-01T08:16:04.806Z,10.17
2019-03-01T08:18:33.201Z,8.93
2019-03-01T08:21:01.597Z,7.70
2019-03-01T08:23:31.712Z,7.90
2019-03-01T08:26:00.128Z,8.17
2019-03-01T08:28:28.603Z,12.83
2019-03-01T08:30:56.983Z,8.57
2019-03-01T08:33:25.397Z,8.50
2019-03-01T08:35:53.785Z,9.10
2019-03-01T08:38:25.370Z,8.10
2019-03-01T08:40:54.449Z,9.30
2019-03-01T08:43:22.498Z,7.47
2019-03-01T08:45:50.885Z,7.43
2019-03-01T08:48:19.295Z,8.53
2019-03-01T08:50:47.678Z,7.30
2019-03-01T08:53:16.201Z,8.27
2019-03-01T08:55:44.595Z,6.57
2019-03-01T08:58:13.003Z,8.23
2019-03-01T09:00:43.823Z,7.50
2019-03-01T09:03:35.048Z,9.03
2019-03-01T09:06:03.436Z,9.57
2019-03-01T09:08:31.864Z,7.03
2019-03-01T09:11:00.254Z,7.17
2019-03-01T09:13:28.676Z,9.53
2019-03-01T09:15:57.065Z,7.63
2019-03-01T09:18:25.538Z,6.90
2019-03-01T09:20:53.921Z,7.03
2019-03-01T09:23:26.417Z,6.63
2019-03-01T09:25:52.466Z,6.80
2019-03-01T09:28:20.885Z,6.80
2019-03-01T09:30:49.273Z,7.53
2019-03-01T09:33:21.573Z,6.43
2019-03-01T09:35:52.141Z,6.73
2019-03-01T09:38:20.573Z,6.30
2019-03-01T09:40:48.956Z,7.40
2019-03-01T09:43:17.392Z,7.20
2019-03-01T09:45:48.814Z,6.57
2019-03-01T09:48:15.906Z,6.53
2019-03-01T09:50:44.298Z,7.13
2019-03-01T09:53:12.703Z,7.47
2019-03-01T09:55:41.076Z,6.50
2019-03-01T09:58:09.468Z,6.23
2019-03-01T10:00:56.042Z,5.63
2019-03-01T10:03:17.123Z,7.03
2019-03-01T10:05:45.509Z,6.80
2019-03-01T10:08:14.238Z,5.97
2019-03-01T10:10:42.634Z,5.83
2019-03-01T10:13:11.021Z,6.33
2019-03-01T10:15:39.414Z,6.33
2019-03-01T10:18:07.805Z,6.13
2019-03-01T10:20:36.268Z,5.53
2019-03-01T10:23:04.652Z,6.63
2019-03-01T10:25:33.040Z,5.60
2019-03-01T10:28:01.429Z,5.47
2019-03-01T10:30:29.882Z,6.17
2019-03-01T10:32:58.294Z,5.23
2019-03-01T10:35:26.670Z,5.33
2019-03-01T10:37:55.133Z,5.33
2019-03-01T10:40:24.671Z,5.30
2019-03-01T10:42:53.048Z,5.20
2019-03-01T10:45:24.723Z,5.23
2019-03-01T10:47:53.109Z,5.57
2019-03-01T10:50:21.496Z,5.13
2019-03-01T10:52:49.892Z,4.97
2019-03-01T10:55:19.201Z,4.70
2019-03-01T10:57:47.656Z,6.03
2019-03-01T11:00:26.737Z,5.20
2019-03-01T11:02:56.064Z,4.83
2019-03-01T11:05:25.238Z,4.87
2019-03-01T11:07:57.202Z,4.70
2019-03-01T11:10:28.856Z,4.43
2019-03-01T11:12:57.243Z,4.53
2019-03-01T11:15:25.649Z,4.93
2019-03-01T11:17:54.125Z,4.60
2019-03-01T11:20:22.892Z,4.60
2019-03-01T11:22:51.320Z,4.47
2019-03-01T11:25:21.965Z,4.23
2019-03-01T11:27:50.351Z,4.47
2019-03-01T11:30:27.467Z,3.80
2019-03-01T11:32:55.862Z,4.40
2019-03-01T11:35:24.286Z,4.50
2019-03-01T11:37:52.685Z,4.50
2019-03-01T11:40:23.884Z,4.63
2019-03-01T11:42:52.269Z,4.60
2019-03-01T11:45:20.710Z,4.30
2019-03-01T11:47:49.127Z,4.40
2019-03-01T11:50:22.666Z,4.67
2019-03-01T11:52:51.126Z,4.30
2019-03-01T11:55:19.614Z,4.20
2019-03-01T11:57:48.247Z,4.30
2019-03-01T12:00:26.585Z,4.10
2019-03-01T12:02:54.967Z,4.43
2019-03-01T12:05:23.374Z,4.27
2019-03-01T12:07:51.767Z,4.50
2019-03-01T12:10:28.604Z,3.90
2019-03-01T12:12:58.621Z,4.60
2019-03-01T12:15:27.088Z,4.23
2019-03-01T12:17:55.483Z,4.90
2019-03-01T12:20:30.010Z,4.30
2019-03-01T12:22:58.398Z,4.53
2019-03-01T12:25:26.794Z,4.80
2019-03-01T12:27:55.227Z,4.40
2019-03-01T12:30:25.194Z,4.37
2019-03-01T12:32:53.639Z,3.97
2019-03-01T12:35:22.033Z,4.47
2019-03-01T12:37:50.413Z,4.17
2019-03-01T12:40:30.041Z,5.10
2019-03-01T12:42:58.434Z,5.30
2019-03-01T12:45:26.825Z,4.90
2019-03-01T12:47:55.231Z,4.43
2019-03-01T12:50:23.699Z,4.80
2019-03-01T12:52:52.095Z,4.40
2019-03-01T12:55:25.859Z,4.77
2019-03-01T12:57:54.301Z,5.00
2019-03-01T13:00:25.209Z,4.87
2019-03-01T13:02:53.590Z,5.17
2019-03-01T13:05:22.019Z,4.63
2019-03-01T13:07:50.406Z,4.67
2019-03-01T13:10:22.103Z,4.77
2019-03-01T13:12:50.487Z,5.17
2019-03-01T13:15:18.893Z,4.90
2019-03-01T13:17:47.290Z,4.67
2019-03-01T13:20:18.345Z,5.07
2019-03-01T13:22:46.780Z,4.63
2019-03-01T13:25:15.790Z,4.03
2019-03-01T13:27:44.198Z,4.90
2019-03-01T13:30:17.702Z,5.40
2019-03-01T13:32:46.100Z,4.47
2019-03-01T13:35:16.461Z,4.60
2019-03-01T13:37:44.852Z,4.70
2019-03-01T13:40:15.328Z,4.77
2019-03-01T13:42:43.711Z,4.60
2019-03-01T13:45:17.287Z,4.90
2019-03-01T13:47:45.663Z,4.93
2019-03-01T13:50:16.234Z,4.80
2019-03-01T13:52:44.631Z,5.53
2019-03-01T13:55:14.899Z,4.73
2019-03-01T13:57:46.008Z,5.03
2019-03-01T14:00:21.914Z,4.40
2019-03-01T14:02:50.443Z,4.90
2019-03-01T14:05:19.006Z,5.03
2019-03-01T14:07:48.331Z,5.07
2019-03-01T14:10:19.588Z,4.50
2019-03-01T14:12:47.986Z,4.83
2019-03-01T14:15:17.642Z,4.50
2019-03-01T14:17:46.021Z,4.13
2019-03-01T14:20:20.361Z,4.50
2019-03-01T14:22:49.419Z,4.90
2019-03-01T14:25:18.364Z,4.33
2019-03-01T14:27:46.799Z,4.40
2019-03-01T14:30:31.166Z,4.87
2019-03-01T14:32:57.491Z,4.23
2019-03-01T14:35:27.178Z,4.37
2019-03-01T14:37:55.976Z,4.17
2019-03-01T14:40:24.418Z,4.20
2019-03-01T14:42:52.799Z,4.50
2019-03-01T14:45:32.526Z,4.50
2019-03-01T14:48:00.912Z,4.33
2019-03-01T14:50:33.623Z,4.40
2019-03-01T14:53:00.648Z,4.83
2019-03-01T14:55:38.112Z,4.40
2019-03-01T14:58:15.695Z,5.17
2019-03-01T15:00:56.139Z,4.90
2019-03-01T15:03:32.952Z,4.60
2019-03-01T15:06:01.325Z,4.70
2019-03-01T15:08:30.075Z,4.67
2019-03-01T15:11:04.396Z,4.63
2019-03-01T15:13:34.783Z,4.80
2019-03-01T15:16:04.691Z,5.17
2019-03-01T15:18:33.654Z,4.77
2019-03-01T15:21:02.837Z,5.23
2019-03-01T15:23:31.446Z,5.13
2019-03-01T15:25:59.893Z,4.83
2019-03-01T15:28:28.294Z,5.40
2019-03-01T15:30:57.345Z,5.33
2019-03-01T15:33:25.907Z,5.07
2019-03-01T15:35:54.386Z,5.13
2019-03-01T15:38:23.921Z,5.03
2019-03-01T15:40:52.920Z,5.30
2019-03-01T15:43:21.360Z,4.97
2019-03-01T15:45:49.748Z,5.17
2019-03-01T15:48:18.131Z,5.47
2019-03-01T15:50:46.523Z,6.43
2019-03-01T15:53:14.916Z,5.33
2019-03-01T15:55:44.954Z,6.17
2019-03-01T15:58:13.357Z,5.67
2019-03-01T16:00:41.746Z,5.60
2019-03-01T16:03:10.140Z,6.30
2019-03-01T16:05:38.533Z,5.77
2019-03-01T16:08:08.365Z,6.37
2019-03-01T16:10:37.039Z,6.03
2019-03-01T16:13:08.314Z,6.00
2019-03-01T16:15:38.720Z,6.17
2019-03-01T16:18:05.692Z,7.07
2019-03-01T16:20:34.128Z,7.53
2019-03-01T16:23:02.519Z,7.57
2019-03-01T16:25:30.903Z,6.43
2019-03-01T16:27:59.296Z,7.80
2019-03-01T16:30:27.682Z,6.27
2019-03-01T16:32:56.083Z,12.23
2019-03-01T16:35:24.469Z,8.27
2019-03-01T16:37:57.878Z,22.23
2019-03-01T16:40:27.594Z,18.93
2019-03-01T16:42:55.994Z,11.03
2019-03-01T16:45:24.541Z,10.73
2019-03-01T16:47:52.929Z,14.13
2019-03-01T16:50:21.491Z,10.37
2019-03-01T16:52:49.889Z,12.70
2019-03-01T16:55:24.353Z,11.33
2019-03-01T16:58:05.986Z,10.07
2019-03-01T17:00:24.478Z,11.17
2019-03-01T17:03:17.104Z,11.17
2019-03-01T17:05:43.722Z,11.57
2019-03-01T17:08:12.118Z,12.43
2019-03-01T17:10:40.510Z,12.23
2019-03-01T17:13:08.900Z,12.53
2019-03-01T17:15:37.304Z,12.70
2019-03-01T17:18:11.276Z,13.57
2019-03-01T17:20:38.402Z,13.23
2019-03-01T17:23:06.050Z,14.10
2019-03-01T17:25:34.458Z,15.90
2019-03-01T17:28:02.892Z,15.60
2019-03-01T17:30:31.291Z,13.93
2019-03-01T17:32:59.747Z,14.23
2019-03-01T17:35:28.125Z,16.47
2019-03-01T17:37:56.558Z,15.97
2019-03-01T17:40:24.974Z,16.13
2019-03-01T17:42:56.582Z,15.67
2019-03-01T17:45:25.726Z,17.80
2019-03-01T17:47:55.398Z,17.33
2019-03-01T17:50:23.945Z,16.27
2019-03-01T17:52:52.432Z,17.53
2019-03-01T17:55:25.467Z,19.80
2019-03-01T17:57:54.021Z,17.63
2019-03-01T18:00:34.033Z,18.23
2019-03-01T18:03:02.424Z,16.70
2019-03-01T18:05:30.827Z,19.93
2019-03-01T18:07:59.845Z,18.63
2019-03-01T18:10:32.095Z,22.57
2019-03-01T18:12:59.493Z,19.67
2019-03-01T18:15:27.885Z,19.37
2019-03-01T18:17:57.210Z,17.20
2019-03-01T18:20:25.608Z,19.47
2019-03-01T18:22:54.206Z,19.30
2019-03-01T18:25:25.877Z,17.33
2019-03-01T18:27:53.807Z,17.63
2019-03-01T18:30:23.935Z,18.53
2019-03-01T18:32:52.516Z,19.43
2019-03-01T18:35:20.921Z,18.43
2019-03-01T18:37:51.434Z,21.20
2019-03-01T18:40:21.092Z,18.80
2019-03-01T18:42:49.491Z,18.30
2019-03-01T18:45:22.734Z,18.00
2019-03-01T18:47:51.169Z,17.20
2019-03-01T18:50:31.347Z,18.30
2019-03-01T18:53:00.171Z,16.77
2019-03-01T18:55:28.563Z,17.73
2019-03-01T18:57:56.996Z,18.17
2019-03-01T19:00:32.418Z,16.83
2019-03-01T19:03:04.379Z,16.60
2019-03-01T19:05:32.016Z,20.53
2019-03-01T19:08:00.862Z,22.73
2019-03-01T19:10:30.668Z,22.80
2019-03-01T19:12:59.112Z,22.77
2019-03-01T19:15:27.497Z,22.57
2019-03-01T19:17:55.995Z,24.07
2019-03-01T19:20:29.414Z,25.40
2019-03-01T19:22:58.683Z,23.70
2019-03-01T19:25:27.173Z,24.70
2019-03-01T19:27:55.622Z,25.20
2019-03-01T19:30:25.486Z,26.37
2019-03-01T19:32:53.898Z,27.70
2019-03-01T19:35:28.262Z,27.47
2019-03-01T19:37:53.579Z,32.60
2019-03-01T19:40:22.925Z,28.03
2019-03-01T19:42:53.028Z,29.73
2019-03-01T19:45:21.431Z,26.63
2019-03-01T19:47:49.858Z,29.27
2019-03-01T19:50:25.009Z,30.80
2019-03-01T19:52:53.799Z,29.33
2019-03-01T19:55:22.186Z,25.93
2019-03-01T19:57:50.622Z,28.17
2019-03-01T20:00:27.152Z,26.33
2019-03-01T20:02:55.588Z,28.20
2019-03-01T20:05:31.715Z,27.33
2019-03-01T20:07:59.263Z,32.20
2019-03-01T20:10:27.709Z,27.87
2019-03-01T20:12:56.065Z,28.60
2019-03-01T20:15:25.972Z,26.57
2019-03-01T20:17:54.937Z,31.80
2019-03-01T20:20:25.736Z,31.03
2019-03-01T20:22:55.241Z,34.33
2019-03-01T20:25:23.747Z,36.70
2019-03-01T20:27:52.180Z,37.13
2019-03-01T20:30:30.117Z,35.93
2019-03-01T20:32:55.618Z,37.80
2019-03-01T20:35:25.838Z,49.40
2019-03-01T20:37:54.234Z,59.90
2019-03-01T20:40:26.138Z,61.97
2019-03-01T20:42:55.860Z,55.20
2019-03-01T20:45:29.937Z,57.33
2019-03-01T20:47:58.836Z,46.23
2019-03-01T20:50:27.306Z,49.23
2019-03-01T20:52:55.874Z,55.33
2019-03-01T20:55:24.270Z,63.23
2019-03-01T20:57:52.674Z,71.00
2019-03-01T21:00:26.157Z,69.47
2019-03-01T21:02:56.657Z,72.07
2019-03-01T21:05:28.737Z,68.00
2019-03-01T21:07:55.183Z,60.17
2019-03-01T21:10:27.951Z,49.50
2019-03-01T21:12:56.451Z,51.03
2019-03-01T21:15:25.000Z,45.77
2019-03-01T21:17:56.934Z,64.70
2019-03-01T21:20:23.516Z,89.50
2019-03-01T21:22:54.327Z,115.10
2019-03-01T21:25:23.965Z,68.23
2019-03-01T21:27:52.445Z,60.23
2019-03-01T21:30:34.650Z,49.80
2019-03-01T21:33:03.051Z,41.37
2019-03-01T21:35:31.448Z,45.03
2019-03-01T21:37:59.854Z,40.60
2019-03-01T21:40:31.464Z,39.60
2019-03-01T21:43:00.180Z,36.27
2019-03-01T21:45:28.513Z,35.33
2019-03-01T21:47:56.969Z,33.07
2019-03-01T21:50:25.381Z,33.60
2019-03-01T21:52:53.783Z,30.37
2019-03-01T21:55:28.558Z,30.17
2019-03-01T21:57:56.727Z,29.67
2019-03-01T22:00:31.391Z,30.00
2019-03-01T22:02:59.608Z,31.20
2019-03-01T22:05:28.079Z,27.27
2019-03-01T22:07:56.508Z,27.70
2019-03-01T22:10:24.917Z,28.13
2019-03-01T22:12:53.327Z,26.77
2019-03-01T22:15:29.399Z,25.47
2019-03-01T22:17:57.795Z,24.03
2019-03-01T22:20:26.245Z,26.60
2019-03-01T22:22:54.635Z,21.70
2019-03-01T22:25:23.104Z,21.70
2019-03-01T22:27:51.507Z,19.97
2019-03-01T22:30:28.770Z,24.43
2019-03-01T22:32:57.162Z,22.70
2019-03-01T22:35:25.572Z,20.30
2019-03-01T22:37:54.042Z,21.17
2019-03-01T22:40:24.006Z,21.03
2019-03-01T22:42:52.566Z,22.43
2019-03-01T22:45:20.967Z,16.37
2019-03-01T22:47:49.372Z,19.33
2019-03-01T22:50:19.991Z,17.03
2019-03-01T22:52:48.538Z,18.13
2019-03-01T22:55:17.774Z,18.07
2019-03-01T22:57:46.173Z,17.77
2019-03-01T23:00:28.052Z,19.27
2019-03-01T23:02:56.451Z,18.07
2019-03-01T23:05:24.857Z,16.03
2019-03-01T23:07:53.258Z,15.40
2019-03-01T23:10:22.402Z,17.23
2019-03-01T23:12:50.903Z,18.23
2019-03-01T23:15:19.389Z,15.50
2019-03-01T23:17:47.807Z,15.43
2019-03-01T23:20:16.219Z,15.73
2019-03-01T23:22:46.039Z,14.63
2019-03-01T23:25:14.697Z,15.07
2019-03-01T23:27:43.100Z,14.87
2019-03-01T23:30:11.534Z,17.73
2019-03-01T23:32:39.925Z,16.23
2019-03-01T23:35:08.397Z,15.17
2019-03-01T23:37:38.814Z,16.33
2019-03-01T23:40:07.476Z,13.87
2019-03-01T23:42:35.952Z,12.23
2019-03-01T23:45:13.813Z,14.17
2019-03-01T23:47:41.431Z,14.30
2019-03-01T23:50:10.331Z,13.13
2019-03-01T23:52:38.805Z,12.53
2019-03-01T23:55:07.872Z,16.43
2019-03-01T23:57:38.089Z,12.67
